sensor_id;sensor_type;location;lat;lon;timestamp;P1;durP1;ratioP1;P2;durP2;ratioP2
7965;SDS011;4028;43.272;26.932;2023-01-28T00:02:14;2.93;;;2.60;;
7965;SDS011;4028;43.272;26.932;2023-01-28T00:04:40;2.87;;;2.60;;
7965;SDS011;4028;43.272;26.932;2023-01-28T00:07:05;3.17;;;2.87;;
7965;SDS011;4028;43.272;26.932;2023-01-28T00:09:31;3.20;;;2.90;;
7965;SDS011;4028;43.272;26.932;2023-01-28T00:11:56;4.03;;;3.23;;
7965;SDS011;4028;43.272;26.932;2023-01-28T00:14:23;3.90;;;3.10;;
7965;SDS011;4028;43.272;26.932;2023-01-28T00:16:48;4.60;;;3.20;;
7965;SDS011;4028;43.272;26.932;2023-01-28T00:19:14;5.17;;;3.73;;
7965;SDS011;4028;43.272;26.932;2023-01-28T00:21:39;4.40;;;3.57;;
7965;SDS011;4028;43.272;26.932;2023-01-28T00:24:05;3.60;;;3.20;;
7965;SDS011;4028;43.272;26.932;2023-01-28T00:26:33;4.97;;;4.20;;
7965;SDS011;4028;43.272;26.932;2023-01-28T00:28:59;4.20;;;3.80;;
7965;SDS011;4028;43.272;26.932;2023-01-28T00:31:25;5.30;;;4.80;;
7965;SDS011;4028;43.272;26.932;2023-01-28T00:33:52;5.73;;;4.37;;
7965;SDS011;4028;43.272;26.932;2023-01-28T00:36:19;3.50;;;3.13;;
7965;SDS011;4028;43.272;26.932;2023-01-28T00:38:53;3.40;;;3.00;;
7965;SDS011;4028;43.272;26.932;2023-01-28T00:41:21;6.20;;;3.67;;
7965;SDS011;4028;43.272;26.932;2023-01-28T00:43:48;5.00;;;3.17;;
7965;SDS011;4028;43.272;26.932;2023-01-28T00:46:14;5.77;;;3.27;;
7965;SDS011;4028;43.272;26.932;2023-01-28T00:48:40;3.50;;;3.20;;
7965;SDS011;4028;43.272;26.932;2023-01-28T00:51:07;3.30;;;3.00;;
7965;SDS011;4028;43.272;26.932;2023-01-28T00:53:33;3.80;;;3.20;;
7965;SDS011;4028;43.272;26.932;2023-01-28T00:56:01;4.03;;;2.77;;
7965;SDS011;4028;43.272;26.932;2023-01-28T00:58:27;3.30;;;3.00;;
7965;SDS011;4028;43.272;26.932;2023-01-28T01:00:52;3.73;;;3.23;;
7965;SDS011;4028;43.272;26.932;2023-01-28T01:03:18;4.87;;;3.90;;
7965;SDS011;4028;43.272;26.932;2023-01-28T01:05:43;4.93;;;3.77;;
7965;SDS011;4028;43.272;26.932;2023-01-28T01:08:09;5.63;;;3.40;;
7965;SDS011;4028;43.272;26.932;2023-01-28T01:10:36;4.73;;;3.60;;
7965;SDS011;4028;43.272;26.932;2023-01-28T01:13:03;3.70;;;3.07;;
7965;SDS011;4028;43.272;26.932;2023-01-28T01:15:30;3.73;;;3.30;;
7965;SDS011;4028;43.272;26.932;2023-01-28T01:17:56;6.23;;;3.20;;
7965;SDS011;4028;43.272;26.932;2023-01-28T01:20:23;5.43;;;4.00;;
7965;SDS011;4028;43.272;26.932;2023-01-28T01:22:52;5.67;;;4.00;;
7965;SDS011;4028;43.272;26.932;2023-01-28T01:25:17;3.90;;;3.50;;
7965;SDS011;4028;43.272;26.932;2023-01-28T01:27:44;5.60;;;4.27;;
7965;SDS011;4028;43.272;26.932;2023-01-28T01:30:12;5.80;;;4.10;;
7965;SDS011;4028;43.272;26.932;2023-01-28T01:32:37;6.27;;;4.73;;
7965;SDS011;4028;43.272;26.932;2023-01-28T01:35:03;4.93;;;4.33;;
7965;SDS011;4028;43.272;26.932;2023-01-28T01:37:31;5.07;;;4.10;;
7965;SDS011;4028;43.272;26.932;2023-01-28T01:39:57;5.43;;;3.97;;
7965;SDS011;4028;43.272;26.932;2023-01-28T01:42:23;5.07;;;3.97;;
7965;SDS011;4028;43.272;26.932;2023-01-28T01:49:57;5.33;;;4.03;;
7965;SDS011;4028;43.272;26.932;2023-01-28T01:52:32;5.60;;;3.80;;
7965;SDS011;4028;43.272;26.932;2023-01-28T01:55:00;5.17;;;4.17;;
7965;SDS011;4028;43.272;26.932;2023-01-28T01:57:30;4.97;;;4.33;;
7965;SDS011;4028;43.272;26.932;2023-01-28T01:59:58;4.70;;;3.90;;
7965;SDS011;4028;43.272;26.932;2023-01-28T02:02:40;5.83;;;4.50;;
7965;SDS011;4028;43.272;26.932;2023-01-28T02:05:10;6.93;;;4.37;;
7965;SDS011;4028;43.272;26.932;2023-01-28T02:07:37;5.17;;;4.00;;
7965;SDS011;4028;43.272;26.932;2023-01-28T02:10:04;5.67;;;4.23;;
7965;SDS011;4028;43.272;26.932;2023-01-28T02:12:35;7.10;;;4.50;;
7965;SDS011;4028;43.272;26.932;2023-01-28T02:15:10;6.67;;;3.90;;
7965;SDS011;4028;43.272;26.932;2023-01-28T02:17:40;5.37;;;4.30;;
7965;SDS011;4028;43.272;26.932;2023-01-28T02:20:07;6.27;;;4.60;;
7965;SDS011;4028;43.272;26.932;2023-01-28T02:39:15;6.10;;;4.37;;
7965;SDS011;4028;43.272;26.932;2023-01-28T02:41:58;7.93;;;5.00;;
7965;SDS011;4028;43.272;26.932;2023-01-28T02:44:33;7.17;;;4.97;;
7965;SDS011;4028;43.272;26.932;2023-01-28T02:46:58;6.17;;;5.30;;
7965;SDS011;4028;43.272;26.932;2023-01-28T02:49:50;6.87;;;4.60;;
7965;SDS011;4028;43.272;26.932;2023-01-28T03:03:18;4.67;;;4.10;;
7965;SDS011;4028;43.272;26.932;2023-01-28T03:05:59;4.93;;;4.23;;
7965;SDS011;4028;43.272;26.932;2023-01-28T03:08:43;5.07;;;4.03;;
7965;SDS011;4028;43.272;26.932;2023-01-28T03:11:34;6.07;;;4.17;;
7965;SDS011;4028;43.272;26.932;2023-01-28T03:14:22;6.10;;;4.90;;
7965;SDS011;4028;43.272;26.932;2023-01-28T03:17:11;6.43;;;4.90;;
7965;SDS011;4028;43.272;26.932;2023-01-28T03:20:17;6.73;;;4.80;;
7965;SDS011;4028;43.272;26.932;2023-01-28T03:23:06;5.20;;;4.17;;
7965;SDS011;4028;43.272;26.932;2023-01-28T03:25:53;6.07;;;4.27;;
7965;SDS011;4028;43.272;26.932;2023-01-28T03:28:41;4.70;;;3.97;;
7965;SDS011;4028;43.272;26.932;2023-01-28T03:31:29;5.27;;;4.27;;
7965;SDS011;4028;43.272;26.932;2023-01-28T03:34:14;7.57;;;4.57;;
7965;SDS011;4028;43.272;26.932;2023-01-28T03:36:58;5.80;;;4.70;;
7965;SDS011;4028;43.272;26.932;2023-01-28T03:39:28;5.23;;;4.70;;
7965;SDS011;4028;43.272;26.932;2023-01-28T03:41:55;6.27;;;4.77;;
7965;SDS011;4028;43.272;26.932;2023-01-28T03:44:39;5.57;;;4.43;;
7965;SDS011;4028;43.272;26.932;2023-01-28T03:47:24;5.43;;;4.57;;
7965;SDS011;4028;43.272;26.932;2023-01-28T03:49:52;5.57;;;4.63;;
7965;SDS011;4028;43.272;26.932;2023-01-28T03:52:23;5.70;;;4.50;;
7965;SDS011;4028;43.272;26.932;2023-01-28T03:54:56;5.73;;;5.07;;
7965;SDS011;4028;43.272;26.932;2023-01-28T03:57:23;6.20;;;4.87;;
7965;SDS011;4028;43.272;26.932;2023-01-28T03:59:49;7.27;;;5.43;;
7965;SDS011;4028;43.272;26.932;2023-01-28T04:02:17;7.40;;;5.70;;
7965;SDS011;4028;43.272;26.932;2023-01-28T04:04:44;7.20;;;5.40;;
7965;SDS011;4028;43.272;26.932;2023-01-28T04:07:11;6.27;;;5.43;;
7965;SDS011;4028;43.272;26.932;2023-01-28T04:09:40;6.87;;;5.53;;
7965;SDS011;4028;43.272;26.932;2023-01-28T04:12:07;7.07;;;5.47;;
7965;SDS011;4028;43.272;26.932;2023-01-28T04:14:32;8.30;;;5.90;;
7965;SDS011;4028;43.272;26.932;2023-01-28T04:16:58;7.47;;;6.20;;
7965;SDS011;4028;43.272;26.932;2023-01-28T04:19:24;6.60;;;5.80;;
7965;SDS011;4028;43.272;26.932;2023-01-28T04:21:50;7.33;;;5.90;;
7965;SDS011;4028;43.272;26.932;2023-01-28T04:24:19;8.00;;;5.93;;
7965;SDS011;4028;43.272;26.932;2023-01-28T04:26:45;6.87;;;6.17;;
7965;SDS011;4028;43.272;26.932;2023-01-28T04:29:10;7.10;;;5.17;;
7965;SDS011;4028;43.272;26.932;2023-01-28T04:31:36;7.37;;;5.50;;
7965;SDS011;4028;43.272;26.932;2023-01-28T04:34:01;8.37;;;5.97;;
7965;SDS011;4028;43.272;26.932;2023-01-28T04:36:27;6.30;;;5.53;;
7965;SDS011;4028;43.272;26.932;2023-01-28T04:38:52;7.90;;;6.40;;
7965;SDS011;4028;43.272;26.932;2023-01-28T04:41:18;8.73;;;6.47;;
7965;SDS011;4028;43.272;26.932;2023-01-28T04:43:44;7.80;;;6.00;;
7965;SDS011;4028;43.272;26.932;2023-01-28T04:46:09;7.33;;;5.83;;
7965;SDS011;4028;43.272;26.932;2023-01-28T04:48:35;7.27;;;5.93;;
7965;SDS011;4028;43.272;26.932;2023-01-28T04:51:01;6.50;;;5.43;;
7965;SDS011;4028;43.272;26.932;2023-01-28T04:53:27;8.33;;;5.70;;
7965;SDS011;4028;43.272;26.932;2023-01-28T04:55:52;7.40;;;5.53;;
7965;SDS011;4028;43.272;26.932;2023-01-28T04:58:18;7.87;;;5.50;;
7965;SDS011;4028;43.272;26.932;2023-01-28T05:00:43;7.30;;;5.97;;
7965;SDS011;4028;43.272;26.932;2023-01-28T05:03:09;8.37;;;6.60;;
7965;SDS011;4028;43.272;26.932;2023-01-28T05:05:34;8.63;;;6.37;;
7965;SDS011;4028;43.272;26.932;2023-01-28T05:08:00;7.53;;;5.77;;
7965;SDS011;4028;43.272;26.932;2023-01-28T05:10:25;7.53;;;5.90;;
7965;SDS011;4028;43.272;26.932;2023-01-28T05:12:52;8.77;;;6.10;;
7965;SDS011;4028;43.272;26.932;2023-01-28T05:15:18;8.17;;;6.13;;
7965;SDS011;4028;43.272;26.932;2023-01-28T05:17:44;8.27;;;6.13;;
7965;SDS011;4028;43.272;26.932;2023-01-28T05:20:10;8.37;;;6.63;;
7965;SDS011;4028;43.272;26.932;2023-01-28T05:22:37;8.43;;;6.10;;
7965;SDS011;4028;43.272;26.932;2023-01-28T05:25:03;7.20;;;5.80;;
7965;SDS011;4028;43.272;26.932;2023-01-28T05:27:30;10.80;;;6.10;;
7965;SDS011;4028;43.272;26.932;2023-01-28T05:29:56;7.93;;;6.47;;
7965;SDS011;4028;43.272;26.932;2023-01-28T05:32:22;7.83;;;6.30;;
7965;SDS011;4028;43.272;26.932;2023-01-28T05:34:48;7.70;;;6.10;;
7965;SDS011;4028;43.272;26.932;2023-01-28T05:37:13;8.20;;;6.23;;
7965;SDS011;4028;43.272;26.932;2023-01-28T05:39:39;8.50;;;6.27;;
7965;SDS011;4028;43.272;26.932;2023-01-28T05:42:04;8.67;;;7.00;;
7965;SDS011;4028;43.272;26.932;2023-01-28T05:44:30;8.53;;;6.40;;
7965;SDS011;4028;43.272;26.932;2023-01-28T05:46:55;7.53;;;5.80;;
7965;SDS011;4028;43.272;26.932;2023-01-28T05:49:21;8.37;;;6.17;;
7965;SDS011;4028;43.272;26.932;2023-01-28T05:51:46;8.67;;;6.97;;
7965;SDS011;4028;43.272;26.932;2023-01-28T05:54:12;9.30;;;6.47;;
7965;SDS011;4028;43.272;26.932;2023-01-28T05:56:38;9.63;;;7.20;;
7965;SDS011;4028;43.272;26.932;2023-01-28T05:59:05;10.57;;;7.03;;
7965;SDS011;4028;43.272;26.932;2023-01-28T06:01:31;10.23;;;7.47;;
7965;SDS011;4028;43.272;26.932;2023-01-28T06:03:57;10.60;;;7.13;;
7965;SDS011;4028;43.272;26.932;2023-01-28T06:06:23;10.87;;;6.70;;
7965;SDS011;4028;43.272;26.932;2023-01-28T06:08:48;9.27;;;6.63;;
7965;SDS011;4028;43.272;26.932;2023-01-28T06:11:14;9.10;;;7.53;;
7965;SDS011;4028;43.272;26.932;2023-01-28T06:13:39;11.40;;;8.50;;
7965;SDS011;4028;43.272;26.932;2023-01-28T06:16:06;10.07;;;7.57;;
7965;SDS011;4028;43.272;26.932;2023-01-28T06:18:32;8.20;;;6.43;;
7965;SDS011;4028;43.272;26.932;2023-01-28T06:20:58;9.87;;;7.43;;
7965;SDS011;4028;43.272;26.932;2023-01-28T06:23:24;12.10;;;7.40;;
7965;SDS011;4028;43.272;26.932;2023-01-28T06:25:53;7.93;;;6.17;;
7965;SDS011;4028;43.272;26.932;2023-01-28T06:28:19;8.60;;;5.90;;
7965;SDS011;4028;43.272;26.932;2023-01-28T06:30:47;7.40;;;5.73;;
7965;SDS011;4028;43.272;26.932;2023-01-28T06:33:13;7.37;;;5.77;;
7965;SDS011;4028;43.272;26.932;2023-01-28T06:35:39;10.40;;;6.70;;
7965;SDS011;4028;43.272;26.932;2023-01-28T06:38:04;10.27;;;7.33;;
7965;SDS011;4028;43.272;26.932;2023-01-28T06:40:30;10.60;;;8.00;;
7965;SDS011;4028;43.272;26.932;2023-01-28T06:42:55;8.10;;;6.63;;
7965;SDS011;4028;43.272;26.932;2023-01-28T06:45:21;7.63;;;6.70;;
7965;SDS011;4028;43.272;26.932;2023-01-28T06:47:46;10.50;;;6.90;;
7965;SDS011;4028;43.272;26.932;2023-01-28T06:50:12;8.80;;;6.37;;
7965;SDS011;4028;43.272;26.932;2023-01-28T06:52:38;8.23;;;6.23;;
7965;SDS011;4028;43.272;26.932;2023-01-28T06:55:03;10.63;;;7.17;;
7965;SDS011;4028;43.272;26.932;2023-01-28T06:57:29;8.93;;;7.23;;
7965;SDS011;4028;43.272;26.932;2023-01-28T06:59:55;9.60;;;7.30;;
7965;SDS011;4028;43.272;26.932;2023-01-28T07:02:20;9.90;;;7.70;;
7965;SDS011;4028;43.272;26.932;2023-01-28T07:04:46;10.87;;;7.93;;
7965;SDS011;4028;43.272;26.932;2023-01-28T07:07:11;9.70;;;7.10;;
7965;SDS011;4028;43.272;26.932;2023-01-28T07:09:37;9.73;;;8.40;;
7965;SDS011;4028;43.272;26.932;2023-01-28T07:12:02;8.80;;;7.03;;
7965;SDS011;4028;43.272;26.932;2023-01-28T07:14:29;10.73;;;8.23;;
7965;SDS011;4028;43.272;26.932;2023-01-28T07:16:55;10.43;;;8.20;;
7965;SDS011;4028;43.272;26.932;2023-01-28T07:19:21;11.80;;;9.63;;
7965;SDS011;4028;43.272;26.932;2023-01-28T07:21:46;10.83;;;8.60;;
7965;SDS011;4028;43.272;26.932;2023-01-28T07:24:11;11.50;;;8.23;;
7965;SDS011;4028;43.272;26.932;2023-01-28T07:26:37;7.10;;;6.40;;
7965;SDS011;4028;43.272;26.932;2023-01-28T07:29:02;9.43;;;7.37;;
7965;SDS011;4028;43.272;26.932;2023-01-28T07:31:28;8.20;;;6.80;;
7965;SDS011;4028;43.272;26.932;2023-01-28T07:33:54;12.07;;;9.23;;
7965;SDS011;4028;43.272;26.932;2023-01-28T07:36:19;9.03;;;7.70;;
7965;SDS011;4028;43.272;26.932;2023-01-28T07:38:44;10.30;;;8.30;;
7965;SDS011;4028;43.272;26.932;2023-01-28T07:41:10;12.70;;;9.27;;
7965;SDS011;4028;43.272;26.932;2023-01-28T07:43:35;12.40;;;9.77;;
7965;SDS011;4028;43.272;26.932;2023-01-28T07:46:01;11.37;;;9.00;;
7965;SDS011;4028;43.272;26.932;2023-01-28T07:48:27;16.13;;;12.47;;
7965;SDS011;4028;43.272;26.932;2023-01-28T07:50:52;11.23;;;8.53;;
7965;SDS011;4028;43.272;26.932;2023-01-28T07:53:18;10.40;;;8.67;;
7965;SDS011;4028;43.272;26.932;2023-01-28T07:55:44;9.93;;;7.97;;
7965;SDS011;4028;43.272;26.932;2023-01-28T07:58:10;11.53;;;8.87;;
7965;SDS011;4028;43.272;26.932;2023-01-28T08:00:36;12.00;;;9.07;;
7965;SDS011;4028;43.272;26.932;2023-01-28T08:03:04;12.20;;;9.23;;
7965;SDS011;4028;43.272;26.932;2023-01-28T08:05:38;13.10;;;9.03;;
7965;SDS011;4028;43.272;26.932;2023-01-28T08:08:11;14.57;;;10.30;;
7965;SDS011;4028;43.272;26.932;2023-01-28T08:10:38;12.73;;;8.70;;
7965;SDS011;4028;43.272;26.932;2023-01-28T08:13:04;13.77;;;10.10;;
7965;SDS011;4028;43.272;26.932;2023-01-28T08:15:30;12.90;;;10.10;;
7965;SDS011;4028;43.272;26.932;2023-01-28T08:17:56;12.53;;;9.67;;
7965;SDS011;4028;43.272;26.932;2023-01-28T08:20:23;12.67;;;8.80;;
7965;SDS011;4028;43.272;26.932;2023-01-28T08:22:49;12.30;;;9.83;;
7965;SDS011;4028;43.272;26.932;2023-01-28T08:25:15;13.63;;;9.73;;
7965;SDS011;4028;43.272;26.932;2023-01-28T08:27:40;14.73;;;9.67;;
7965;SDS011;4028;43.272;26.932;2023-01-28T08:30:06;13.03;;;9.93;;
7965;SDS011;4028;43.272;26.932;2023-01-28T08:32:33;13.17;;;9.77;;
7965;SDS011;4028;43.272;26.932;2023-01-28T08:34:59;15.60;;;11.97;;
7965;SDS011;4028;43.272;26.932;2023-01-28T08:37:25;14.40;;;11.57;;
7965;SDS011;4028;43.272;26.932;2023-01-28T08:39:50;15.40;;;10.03;;
7965;SDS011;4028;43.272;26.932;2023-01-28T08:42:16;13.07;;;8.90;;
7965;SDS011;4028;43.272;26.932;2023-01-28T08:44:41;12.57;;;9.00;;
7965;SDS011;4028;43.272;26.932;2023-01-28T08:47:07;13.10;;;9.90;;
7965;SDS011;4028;43.272;26.932;2023-01-28T08:49:32;14.40;;;10.90;;
7965;SDS011;4028;43.272;26.932;2023-01-28T08:51:57;13.13;;;9.87;;
7965;SDS011;4028;43.272;26.932;2023-01-28T08:54:23;13.30;;;9.87;;
7965;SDS011;4028;43.272;26.932;2023-01-28T08:56:50;14.80;;;11.13;;
7965;SDS011;4028;43.272;26.932;2023-01-28T08:59:16;14.03;;;10.83;;
7965;SDS011;4028;43.272;26.932;2023-01-28T09:01:42;15.37;;;10.33;;
7965;SDS011;4028;43.272;26.932;2023-01-28T09:04:07;11.50;;;9.00;;
7965;SDS011;4028;43.272;26.932;2023-01-28T09:06:33;11.33;;;9.27;;
7965;SDS011;4028;43.272;26.932;2023-01-28T09:08:59;14.97;;;10.37;;
7965;SDS011;4028;43.272;26.932;2023-01-28T09:11:25;14.23;;;10.60;;
7965;SDS011;4028;43.272;26.932;2023-01-28T09:13:51;12.90;;;8.60;;
7965;SDS011;4028;43.272;26.932;2023-01-28T09:16:17;10.03;;;7.83;;
7965;SDS011;4028;43.272;26.932;2023-01-28T09:18:42;12.07;;;9.10;;
7965;SDS011;4028;43.272;26.932;2023-01-28T09:21:08;13.40;;;9.67;;
7965;SDS011;4028;43.272;26.932;2023-01-28T09:23:36;11.20;;;9.20;;
7965;SDS011;4028;43.272;26.932;2023-01-28T09:26:03;11.33;;;8.53;;
7965;SDS011;4028;43.272;26.932;2023-01-28T09:28:29;12.13;;;9.87;;
7965;SDS011;4028;43.272;26.932;2023-01-28T09:31:05;11.87;;;8.70;;
7965;SDS011;4028;43.272;26.932;2023-01-28T09:33:33;11.80;;;9.20;;
7965;SDS011;4028;43.272;26.932;2023-01-28T09:36:00;11.00;;;8.97;;
7965;SDS011;4028;43.272;26.932;2023-01-28T09:38:30;10.57;;;7.70;;
7965;SDS011;4028;43.272;26.932;2023-01-28T09:40:56;10.03;;;7.63;;
7965;SDS011;4028;43.272;26.932;2023-01-28T09:43:25;8.87;;;7.97;;
7965;SDS011;4028;43.272;26.932;2023-01-28T09:46:26;8.80;;;7.57;;
7965;SDS011;4028;43.272;26.932;2023-01-28T09:48:56;9.97;;;7.17;;
7965;SDS011;4028;43.272;26.932;2023-01-28T09:53:59;9.43;;;7.63;;
7965;SDS011;4028;43.272;26.932;2023-01-28T09:56:30;9.03;;;6.97;;
7965;SDS011;4028;43.272;26.932;2023-01-28T09:59:13;11.40;;;8.40;;
7965;SDS011;4028;43.272;26.932;2023-01-28T10:05:02;8.53;;;7.40;;
7965;SDS011;4028;43.272;26.932;2023-01-28T10:10:39;9.33;;;7.73;;
7965;SDS011;4028;43.272;26.932;2023-01-28T10:19:18;11.67;;;8.30;;
7965;SDS011;4028;43.272;26.932;2023-01-28T10:22:02;9.50;;;7.47;;
7965;SDS011;4028;43.272;26.932;2023-01-28T10:24:35;8.97;;;7.20;;
7965;SDS011;4028;43.272;26.932;2023-01-28T10:27:13;13.57;;;10.67;;
7965;SDS011;4028;43.272;26.932;2023-01-28T10:29:41;9.97;;;8.93;;
7965;SDS011;4028;43.272;26.932;2023-01-28T10:32:15;8.83;;;7.43;;
7965;SDS011;4028;43.272;26.932;2023-01-28T10:34:47;13.73;;;11.83;;
7965;SDS011;4028;43.272;26.932;2023-01-28T10:37:13;12.10;;;9.00;;
7965;SDS011;4028;43.272;26.932;2023-01-28T10:39:40;18.00;;;14.00;;
7965;SDS011;4028;43.272;26.932;2023-01-28T10:42:48;21.97;;;18.30;;
7965;SDS011;4028;43.272;26.932;2023-01-28T10:45:18;9.93;;;8.27;;
7965;SDS011;4028;43.272;26.932;2023-01-28T10:47:49;8.57;;;6.67;;
7965;SDS011;4028;43.272;26.932;2023-01-28T10:50:24;12.33;;;8.23;;
7965;SDS011;4028;43.272;26.932;2023-01-28T10:52:59;8.27;;;6.77;;
7965;SDS011;4028;43.272;26.932;2023-01-28T10:55:28;8.30;;;6.77;;
7965;SDS011;4028;43.272;26.932;2023-01-28T10:57:56;9.33;;;6.63;;
7965;SDS011;4028;43.272;26.932;2023-01-28T11:00:26;12.27;;;6.93;;
7965;SDS011;4028;43.272;26.932;2023-01-28T11:02:56;6.90;;;5.73;;
7965;SDS011;4028;43.272;26.932;2023-01-28T11:05:23;7.57;;;6.63;;
7965;SDS011;4028;43.272;26.932;2023-01-28T11:08:41;8.13;;;6.30;;
7965;SDS011;4028;43.272;26.932;2023-01-28T11:10:43;7.73;;;6.37;;
7965;SDS011;4028;43.272;26.932;2023-01-28T11:13:22;8.13;;;6.37;;
7965;SDS011;4028;43.272;26.932;2023-01-28T11:15:52;7.83;;;6.33;;
7965;SDS011;4028;43.272;26.932;2023-01-28T11:18:25;8.90;;;7.10;;
7965;SDS011;4028;43.272;26.932;2023-01-28T11:20:54;6.10;;;5.50;;
7965;SDS011;4028;43.272;26.932;2023-01-28T11:23:26;6.90;;;5.60;;
7965;SDS011;4028;43.272;26.932;2023-01-28T11:26:03;6.30;;;5.47;;
7965;SDS011;4028;43.272;26.932;2023-01-28T11:28:31;7.07;;;5.77;;
7965;SDS011;4028;43.272;26.932;2023-01-28T11:30:59;6.37;;;5.53;;
7965;SDS011;4028;43.272;26.932;2023-01-28T11:33:37;8.63;;;6.20;;
7965;SDS011;4028;43.272;26.932;2023-01-28T11:36:12;6.10;;;5.50;;
7965;SDS011;4028;43.272;26.932;2023-01-28T11:38:46;5.70;;;4.83;;
7965;SDS011;4028;43.272;26.932;2023-01-28T11:41:27;7.90;;;5.97;;
7965;SDS011;4028;43.272;26.932;2023-01-28T11:43:53;7.00;;;5.30;;
7965;SDS011;4028;43.272;26.932;2023-01-28T11:48:57;7.63;;;6.20;;
7965;SDS011;4028;43.272;26.932;2023-01-28T11:56:45;7.70;;;6.17;;
7965;SDS011;4028;43.272;26.932;2023-01-28T12:05:00;9.10;;;6.60;;
7965;SDS011;4028;43.272;26.932;2023-01-28T12:07:37;25.77;;;17.47;;
7965;SDS011;4028;43.272;26.932;2023-01-28T12:27:42;10.13;;;8.20;;
7965;SDS011;4028;43.272;26.932;2023-01-28T12:36:32;8.07;;;7.13;;
7965;SDS011;4028;43.272;26.932;2023-01-28T12:39:31;7.07;;;6.30;;
7965;SDS011;4028;43.272;26.932;2023-01-28T12:42:22;8.17;;;7.27;;
7965;SDS011;4028;43.272;26.932;2023-01-28T12:45:14;8.07;;;6.97;;
7965;SDS011;4028;43.272;26.932;2023-01-28T12:47:48;15.33;;;11.20;;
7965;SDS011;4028;43.272;26.932;2023-01-28T12:50:24;9.70;;;6.90;;
7965;SDS011;4028;43.272;26.932;2023-01-28T12:52:57;11.73;;;9.70;;
7965;SDS011;4028;43.272;26.932;2023-01-28T12:55:45;7.17;;;6.43;;
7965;SDS011;4028;43.272;26.932;2023-01-28T12:58:16;6.30;;;5.70;;
7965;SDS011;4028;43.272;26.932;2023-01-28T13:00:50;9.17;;;6.53;;
7965;SDS011;4028;43.272;26.932;2023-01-28T13:03:24;10.00;;;8.50;;
7965;SDS011;4028;43.272;26.932;2023-01-28T13:06:00;9.30;;;6.80;;
7965;SDS011;4028;43.272;26.932;2023-01-28T13:08:30;6.80;;;5.97;;
7965;SDS011;4028;43.272;26.932;2023-01-28T13:10:57;8.87;;;7.03;;
7965;SDS011;4028;43.272;26.932;2023-01-28T13:13:28;11.43;;;7.53;;
7965;SDS011;4028;43.272;26.932;2023-01-28T13:15:56;9.50;;;7.53;;
7965;SDS011;4028;43.272;26.932;2023-01-28T13:23:50;11.40;;;8.97;;
7965;SDS011;4028;43.272;26.932;2023-01-28T13:26:36;9.60;;;8.53;;
7965;SDS011;4028;43.272;26.932;2023-01-28T13:31:39;10.07;;;8.03;;
7965;SDS011;4028;43.272;26.932;2023-01-28T13:34:24;11.80;;;8.97;;
7965;SDS011;4028;43.272;26.932;2023-01-28T13:36:53;13.33;;;9.80;;
7965;SDS011;4028;43.272;26.932;2023-01-28T13:39:22;17.23;;;12.63;;
7965;SDS011;4028;43.272;26.932;2023-01-28T13:42:33;17.93;;;13.50;;
7965;SDS011;4028;43.272;26.932;2023-01-28T13:44:53;14.80;;;12.03;;
7965;SDS011;4028;43.272;26.932;2023-01-28T13:47:23;12.60;;;9.87;;
7965;SDS011;4028;43.272;26.932;2023-01-28T13:50:10;17.80;;;12.10;;
7965;SDS011;4028;43.272;26.932;2023-01-28T13:52:55;16.60;;;13.73;;
7965;SDS011;4028;43.272;26.932;2023-01-28T13:55:26;19.17;;;12.57;;
7965;SDS011;4028;43.272;26.932;2023-01-28T14:00:37;9.27;;;8.17;;
7965;SDS011;4028;43.272;26.932;2023-01-28T14:14:42;12.27;;;9.93;;
7965;SDS011;4028;43.272;26.932;2023-01-28T14:17:41;13.23;;;9.60;;
7965;SDS011;4028;43.272;26.932;2023-01-28T14:22:44;12.17;;;9.30;;
7965;SDS011;4028;43.272;26.932;2023-01-28T14:25:11;15.73;;;10.57;;
7965;SDS011;4028;43.272;26.932;2023-01-28T14:27:42;12.80;;;9.77;;
7965;SDS011;4028;43.272;26.932;2023-01-28T14:32:56;13.80;;;9.57;;
7965;SDS011;4028;43.272;26.932;2023-01-28T14:35:26;13.67;;;11.30;;
7965;SDS011;4028;43.272;26.932;2023-01-28T14:37:54;13.30;;;9.80;;
7965;SDS011;4028;43.272;26.932;2023-01-28T14:40:21;12.47;;;10.17;;
7965;SDS011;4028;43.272;26.932;2023-01-28T14:42:56;11.97;;;10.60;;
7965;SDS011;4028;43.272;26.932;2023-01-28T14:53:47;20.03;;;13.67;;
7965;SDS011;4028;43.272;26.932;2023-01-28T14:56:19;16.30;;;12.50;;
7965;SDS011;4028;43.272;26.932;2023-01-28T14:58:50;15.57;;;11.03;;
7965;SDS011;4028;43.272;26.932;2023-01-28T15:03:48;16.70;;;12.23;;
7965;SDS011;4028;43.272;26.932;2023-01-28T15:06:15;11.63;;;9.77;;
7965;SDS011;4028;43.272;26.932;2023-01-28T15:08:45;15.03;;;12.20;;
7965;SDS011;4028;43.272;26.932;2023-01-28T15:11:15;13.80;;;11.47;;
7965;SDS011;4028;43.272;26.932;2023-01-28T15:13:45;14.70;;;11.60;;
7965;SDS011;4028;43.272;26.932;2023-01-28T15:16:20;13.37;;;11.07;;
7965;SDS011;4028;43.272;26.932;2023-01-28T15:18:48;14.43;;;11.93;;
7965;SDS011;4028;43.272;26.932;2023-01-28T15:21:20;17.47;;;13.33;;
7965;SDS011;4028;43.272;26.932;2023-01-28T15:23:48;11.30;;;9.57;;
7965;SDS011;4028;43.272;26.932;2023-01-28T15:26:21;12.10;;;10.43;;
7965;SDS011;4028;43.272;26.932;2023-01-28T15:28:50;15.70;;;13.17;;
7965;SDS011;4028;43.272;26.932;2023-01-28T15:31:27;76.10;;;46.03;;
7965;SDS011;4028;43.272;26.932;2023-01-28T15:34:14;226.13;;;112.70;;
7965;SDS011;4028;43.272;26.932;2023-01-28T15:36:42;360.43;;;236.60;;
7965;SDS011;4028;43.272;26.932;2023-01-28T15:39:16;189.60;;;119.80;;
7965;SDS011;4028;43.272;26.932;2023-01-28T15:41:45;53.57;;;38.03;;
7965;SDS011;4028;43.272;26.932;2023-01-28T15:44:18;69.20;;;51.03;;
7965;SDS011;4028;43.272;26.932;2023-01-28T15:47:17;34.73;;;29.60;;
7965;SDS011;4028;43.272;26.932;2023-01-28T15:49:49;22.93;;;18.40;;
7965;SDS011;4028;43.272;26.932;2023-01-28T15:52:20;55.17;;;40.93;;
7965;SDS011;4028;43.272;26.932;2023-01-28T15:54:53;441.90;;;237.27;;
7965;SDS011;4028;43.272;26.932;2023-01-28T15:57:19;931.30;;;624.50;;
7965;SDS011;4028;43.272;26.932;2023-01-28T15:59:46;256.27;;;154.87;;
7965;SDS011;4028;43.272;26.932;2023-01-28T16:02:22;65.17;;;46.17;;
7965;SDS011;4028;43.272;26.932;2023-01-28T16:04:58;97.83;;;70.60;;
7965;SDS011;4028;43.272;26.932;2023-01-28T16:07:26;27.80;;;21.17;;
7965;SDS011;4028;43.272;26.932;2023-01-28T16:09:55;92.67;;;63.20;;
7965;SDS011;4028;43.272;26.932;2023-01-28T16:12:22;169.77;;;104.73;;
7965;SDS011;4028;43.272;26.932;2023-01-28T16:14:57;95.87;;;59.80;;
7965;SDS011;4028;43.272;26.932;2023-01-28T16:17:27;168.80;;;106.20;;
7965;SDS011;4028;43.272;26.932;2023-01-28T16:20:04;211.00;;;131.53;;
7965;SDS011;4028;43.272;26.932;2023-01-28T16:22:34;278.17;;;168.50;;
7965;SDS011;4028;43.272;26.932;2023-01-28T16:25:02;446.80;;;322.77;;
7965;SDS011;4028;43.272;26.932;2023-01-28T16:27:47;338.20;;;216.03;;
7965;SDS011;4028;43.272;26.932;2023-01-28T16:30:14;76.83;;;49.23;;
7965;SDS011;4028;43.272;26.932;2023-01-28T16:32:40;372.70;;;239.53;;
7965;SDS011;4028;43.272;26.932;2023-01-28T16:35:19;115.67;;;67.10;;
7965;SDS011;4028;43.272;26.932;2023-01-28T16:37:47;135.00;;;90.90;;
7965;SDS011;4028;43.272;26.932;2023-01-28T16:40:14;41.87;;;29.23;;
7965;SDS011;4028;43.272;26.932;2023-01-28T16:42:42;89.60;;;52.20;;
7965;SDS011;4028;43.272;26.932;2023-01-28T16:45:18;108.03;;;67.20;;
7965;SDS011;4028;43.272;26.932;2023-01-28T16:47:46;105.03;;;59.93;;
7965;SDS011;4028;43.272;26.932;2023-01-28T16:50:12;138.83;;;77.03;;
7965;SDS011;4028;43.272;26.932;2023-01-28T16:52:40;235.00;;;120.53;;
7965;SDS011;4028;43.272;26.932;2023-01-28T16:55:17;437.47;;;282.00;;
7965;SDS011;4028;43.272;26.932;2023-01-28T16:57:45;155.60;;;86.70;;
7965;SDS011;4028;43.272;26.932;2023-01-28T17:00:16;204.77;;;114.67;;
7965;SDS011;4028;43.272;26.932;2023-01-28T17:02:44;396.97;;;233.87;;
7965;SDS011;4028;43.272;26.932;2023-01-28T17:05:10;93.33;;;56.37;;
7965;SDS011;4028;43.272;26.932;2023-01-28T17:07:36;113.10;;;70.03;;
7965;SDS011;4028;43.272;26.932;2023-01-28T17:10:03;178.37;;;106.83;;
7965;SDS011;4028;43.272;26.932;2023-01-28T17:12:29;86.27;;;53.30;;